Carson, North Dakota
Current Conditions -  °F | °C
As of 2:15 AM on Monday 22 Dec 2014 (Local Time) from KD57 Reporting Station
Haze Haze  
Wind Chill: 30°   Ceiling: 400
Heat Index: 30°   Visibility: 2mi
Dew Point: 28°   Wind: 0mph
Humidity: 93%   Direction: NA
Pressure: 29.41"   Gusts: NA
Location:  46.42°N, 101.56°W
Report Text: KD57 220915Z AUTO 00000KT 2SM BR OVC004 M01/M02 A2941 RMK AO2 TSNO
Loading
Personal Weather Stations






























Interactive Weather Map New forecast layout! Learn more

10-Day Weather Forecast

Advertisements
Track Severe Weather on mobile